Tizayuca Airport

Jump to: basic info | weather | runways | comments

Related pages: nearby airports | nearby navaids | notams | map

Basic information (top)

Codes: MM28
Location: lon 19.874001, lat -98.943604, elev 7,600 ft / 2,316 m msl
Status: small_airport

Weather (top)

Current conditions for Licenciado Benito Juarez International Airport 27nm (50km) SSW (rec'd 2014/11/28 19:44Z):

MMMX 281944Z 06004KT 6SM BKN220 18/M01 A3030 NOSIG RMK 8/004 HZY DSNT CU E

Airport forecast for Licenciado Benito Juarez International Airport 27nm (50km) SSW (rec'd 2014/11/27 12:44Z):

TAF COR MMMX 271237Z 2712/2818 05005KT P6SM SKC TX21/2721Z TN03/2712Z 
     FM271800 04014KT P6SM SCT250 
     FM280600 33008KT P6SM SKC 
     FM281700 04012KT P6SM SCT250

Runways (top)

01/19: 4,235 x 80 ft (1,291 x 24 m) — paved — not lighted

Latest comments (top)

No comments yet for Tizayuca Airport

More... (top)

See also NOTAMs and nearby airports and navaids, or visit the Tizayuca Airport page at the main OurAirports website..